sensor_id;sensor_type;location;lat;lon;timestamp;P1;durP1;ratioP1;P2;durP2;ratioP2
30948;SDS011;17637;51.984;21.208;2022-09-27T00:00:59;54.53;;;43.75;;
30948;SDS011;17637;51.984;21.208;2022-09-27T00:03:27;54.95;;;42.03;;
30948;SDS011;17637;51.984;21.208;2022-09-27T00:08:54;57.50;;;42.67;;
30948;SDS011;17637;51.984;21.208;2022-09-27T00:14:05;65.38;;;46.17;;
30948;SDS011;17637;51.984;21.208;2022-09-27T00:16:34;62.80;;;44.00;;
30948;SDS011;17637;51.984;21.208;2022-09-27T00:19:07;49.15;;;38.25;;
30948;SDS011;17637;51.984;21.208;2022-09-27T00:21:37;68.80;;;47.47;;
30948;SDS011;17637;51.984;21.208;2022-09-27T00:24:04;49.75;;;37.50;;
30948;SDS011;17637;51.984;21.208;2022-09-27T00:26:31;55.38;;;40.97;;
30948;SDS011;17637;51.984;21.208;2022-09-27T00:28:58;51.70;;;41.03;;
30948;SDS011;17637;51.984;21.208;2022-09-27T00:31:26;55.13;;;41.88;;
30948;SDS011;17637;51.984;21.208;2022-09-27T00:33:56;57.72;;;41.83;;
30948;SDS011;17637;51.984;21.208;2022-09-27T00:36:25;60.58;;;42.95;;
30948;SDS011;17637;51.984;21.208;2022-09-27T00:38:53;47.95;;;38.13;;
30948;SDS011;17637;51.984;21.208;2022-09-27T00:41:23;63.95;;;45.95;;
30948;SDS011;17637;51.984;21.208;2022-09-27T00:43:56;61.80;;;44.05;;
30948;SDS011;17637;51.984;21.208;2022-09-27T00:46:30;74.80;;;48.28;;
30948;SDS011;17637;51.984;21.208;2022-09-27T00:51:48;55.30;;;41.28;;
30948;SDS011;17637;51.984;21.208;2022-09-27T00:54:21;55.28;;;42.63;;
30948;SDS011;17637;51.984;21.208;2022-09-27T00:56:52;65.95;;;44.30;;
30948;SDS011;17637;51.984;21.208;2022-09-27T00:59:22;51.80;;;40.00;;
30948;SDS011;17637;51.984;21.208;2022-09-27T01:01:54;55.35;;;41.42;;
30948;SDS011;17637;51.984;21.208;2022-09-27T01:04:23;55.33;;;42.58;;
30948;SDS011;17637;51.984;21.208;2022-09-27T01:06:53;47.42;;;37.25;;
30948;SDS011;17637;51.984;21.208;2022-09-27T01:09:20;53.00;;;41.13;;
30948;SDS011;17637;51.984;21.208;2022-09-27T01:26:08;53.85;;;40.72;;
30948;SDS011;17637;51.984;21.208;2022-09-27T01:29:09;59.33;;;43.33;;
30948;SDS011;17637;51.984;21.208;2022-09-27T01:31:42;79.47;;;53.30;;
30948;SDS011;17637;51.984;21.208;2022-09-27T01:44:49;77.70;;;52.45;;
30948;SDS011;17637;51.984;21.208;2022-09-27T01:47:18;73.38;;;49.55;;
30948;SDS011;17637;51.984;21.208;2022-09-27T01:49:59;89.57;;;55.88;;
30948;SDS011;17637;51.984;21.208;2022-09-27T01:52:47;79.47;;;52.00;;
30948;SDS011;17637;51.984;21.208;2022-09-27T01:55:19;73.97;;;52.78;;
30948;SDS011;17637;51.984;21.208;2022-09-27T01:57:58;68.38;;;49.63;;
30948;SDS011;17637;51.984;21.208;2022-09-27T02:00:30;68.72;;;48.08;;
30948;SDS011;17637;51.984;21.208;2022-09-27T02:03:00;79.55;;;52.65;;
30948;SDS011;17637;51.984;21.208;2022-09-27T02:05:37;57.38;;;41.63;;
30948;SDS011;17637;51.984;21.208;2022-09-27T02:08:20;66.97;;;45.40;;
30948;SDS011;17637;51.984;21.208;2022-09-27T02:10:53;73.07;;;48.28;;
30948;SDS011;17637;51.984;21.208;2022-09-27T02:13:32;69.28;;;48.80;;
30948;SDS011;17637;51.984;21.208;2022-09-27T02:16:09;60.10;;;44.20;;
30948;SDS011;17637;51.984;21.208;2022-09-27T02:25:17;47.90;;;37.30;;
30948;SDS011;17637;51.984;21.208;2022-09-27T02:27:52;67.30;;;45.80;;
30948;SDS011;17637;51.984;21.208;2022-09-27T02:30:21;65.10;;;43.42;;
30948;SDS011;17637;51.984;21.208;2022-09-27T02:32:49;80.20;;;49.15;;
30948;SDS011;17637;51.984;21.208;2022-09-27T02:35:17;76.63;;;51.58;;
30948;SDS011;17637;51.984;21.208;2022-09-27T02:37:50;60.28;;;44.42;;
30948;SDS011;17637;51.984;21.208;2022-09-27T02:40:18;74.88;;;49.30;;
30948;SDS011;17637;51.984;21.208;2022-09-27T02:42:45;72.05;;;47.03;;
30948;SDS011;17637;51.984;21.208;2022-09-27T02:45:13;79.03;;;53.30;;
30948;SDS011;17637;51.984;21.208;2022-09-27T02:47:48;86.53;;;50.13;;
30948;SDS011;17637;51.984;21.208;2022-09-27T02:50:29;74.28;;;48.42;;
30948;SDS011;17637;51.984;21.208;2022-09-27T03:06:29;72.43;;;48.00;;
30948;SDS011;17637;51.984;21.208;2022-09-27T03:08:58;65.38;;;44.00;;
30948;SDS011;17637;51.984;21.208;2022-09-27T03:11:25;66.93;;;44.60;;
30948;SDS011;17637;51.984;21.208;2022-09-27T03:13:52;67.28;;;41.95;;
30948;SDS011;17637;51.984;21.208;2022-09-27T03:16:34;62.05;;;40.35;;
30948;SDS011;17637;51.984;21.208;2022-09-27T03:19:01;62.70;;;41.50;;
30948;SDS011;17637;51.984;21.208;2022-09-27T03:21:28;73.03;;;44.90;;
30948;SDS011;17637;51.984;21.208;2022-09-27T03:23:55;53.90;;;38.65;;
30948;SDS011;17637;51.984;21.208;2022-09-27T03:26:22;64.07;;;42.88;;
30948;SDS011;17637;51.984;21.208;2022-09-27T03:28:49;66.57;;;40.05;;
30948;SDS011;17637;51.984;21.208;2022-09-27T03:31:16;110.78;;;46.10;;
30948;SDS011;17637;51.984;21.208;2022-09-27T03:33:43;68.32;;;38.47;;
30948;SDS011;17637;51.984;21.208;2022-09-27T03:36:10;58.15;;;36.95;;
30948;SDS011;17637;51.984;21.208;2022-09-27T03:38:37;55.50;;;35.75;;
30948;SDS011;17637;51.984;21.208;2022-09-27T03:41:04;93.20;;;40.92;;
30948;SDS011;17637;51.984;21.208;2022-09-27T03:43:32;65.95;;;34.75;;
30948;SDS011;17637;51.984;21.208;2022-09-27T03:45:58;84.53;;;42.58;;
30948;SDS011;17637;51.984;21.208;2022-09-27T03:48:26;67.55;;;36.75;;
30948;SDS011;17637;51.984;21.208;2022-09-27T03:50:53;76.90;;;38.05;;
30948;SDS011;17637;51.984;21.208;2022-09-27T03:53:20;49.25;;;31.42;;
30948;SDS011;17637;51.984;21.208;2022-09-27T03:55:47;74.18;;;37.15;;
30948;SDS011;17637;51.984;21.208;2022-09-27T03:58:14;54.88;;;34.28;;
30948;SDS011;17637;51.984;21.208;2022-09-27T04:00:41;58.70;;;32.88;;
30948;SDS011;17637;51.984;21.208;2022-09-27T04:03:09;78.18;;;38.28;;
30948;SDS011;17637;51.984;21.208;2022-09-27T04:05:37;68.80;;;37.03;;
30948;SDS011;17637;51.984;21.208;2022-09-27T04:08:04;87.00;;;40.92;;
30948;SDS011;17637;51.984;21.208;2022-09-27T04:10:31;53.05;;;32.90;;
30948;SDS011;17637;51.984;21.208;2022-09-27T04:12:58;74.20;;;37.42;;
30948;SDS011;17637;51.984;21.208;2022-09-27T04:15:26;56.28;;;34.35;;
30948;SDS011;17637;51.984;21.208;2022-09-27T04:17:53;51.35;;;32.78;;
30948;SDS011;17637;51.984;21.208;2022-09-27T04:20:20;36.63;;;25.98;;
30948;SDS011;17637;51.984;21.208;2022-09-27T04:22:47;42.92;;;28.25;;
30948;SDS011;17637;51.984;21.208;2022-09-27T04:25:14;45.83;;;30.08;;
30948;SDS011;17637;51.984;21.208;2022-09-27T04:27:44;51.95;;;29.65;;
30948;SDS011;17637;51.984;21.208;2022-09-27T04:32:42;44.58;;;29.10;;
30948;SDS011;17637;51.984;21.208;2022-09-27T04:35:10;38.40;;;26.02;;
30948;SDS011;17637;51.984;21.208;2022-09-27T04:37:57;40.28;;;26.98;;
30948;SDS011;17637;51.984;21.208;2022-09-27T04:40:24;38.42;;;25.50;;
30948;SDS011;17637;51.984;21.208;2022-09-27T04:42:52;42.53;;;26.95;;
30948;SDS011;17637;51.984;21.208;2022-09-27T04:45:19;51.05;;;31.75;;
30948;SDS011;17637;51.984;21.208;2022-09-27T04:47:47;35.55;;;25.42;;
30948;SDS011;17637;51.984;21.208;2022-09-27T04:50:15;44.95;;;29.75;;
30948;SDS011;17637;51.984;21.208;2022-09-27T04:52:43;39.03;;;25.65;;
30948;SDS011;17637;51.984;21.208;2022-09-27T04:55:10;35.50;;;24.88;;
30948;SDS011;17637;51.984;21.208;2022-09-27T04:57:37;39.63;;;26.48;;
30948;SDS011;17637;51.984;21.208;2022-09-27T05:00:04;60.97;;;31.77;;
30948;SDS011;17637;51.984;21.208;2022-09-27T05:02:31;42.03;;;27.65;;
30948;SDS011;17637;51.984;21.208;2022-09-27T05:04:58;53.45;;;30.33;;
30948;SDS011;17637;51.984;21.208;2022-09-27T05:07:26;51.55;;;30.13;;
30948;SDS011;17637;51.984;21.208;2022-09-27T05:09:54;66.30;;;32.80;;
30948;SDS011;17637;51.984;21.208;2022-09-27T05:12:22;57.30;;;30.95;;
30948;SDS011;17637;51.984;21.208;2022-09-27T05:14:52;48.30;;;28.52;;
30948;SDS011;17637;51.984;21.208;2022-09-27T05:17:19;42.20;;;25.77;;
30948;SDS011;17637;51.984;21.208;2022-09-27T05:19:48;47.40;;;29.15;;
30948;SDS011;17637;51.984;21.208;2022-09-27T05:22:15;44.63;;;28.05;;
30948;SDS011;17637;51.984;21.208;2022-09-27T05:24:43;50.08;;;29.10;;
30948;SDS011;17637;51.984;21.208;2022-09-27T05:27:11;47.00;;;29.15;;
30948;SDS011;17637;51.984;21.208;2022-09-27T05:29:42;37.78;;;25.75;;
30948;SDS011;17637;51.984;21.208;2022-09-27T05:32:10;56.92;;;28.40;;
30948;SDS011;17637;51.984;21.208;2022-09-27T05:34:37;52.97;;;28.90;;
30948;SDS011;17637;51.984;21.208;2022-09-27T05:37:04;53.35;;;27.65;;
30948;SDS011;17637;51.984;21.208;2022-09-27T05:39:31;44.58;;;27.42;;
30948;SDS011;17637;51.984;21.208;2022-09-27T05:41:58;37.13;;;23.73;;
30948;SDS011;17637;51.984;21.208;2022-09-27T05:44:26;46.00;;;25.52;;
30948;SDS011;17637;51.984;21.208;2022-09-27T05:46:52;65.72;;;28.35;;
30948;SDS011;17637;51.984;21.208;2022-09-27T05:49:19;87.55;;;31.15;;
30948;SDS011;17637;51.984;21.208;2022-09-27T05:51:46;93.07;;;29.65;;
30948;SDS011;17637;51.984;21.208;2022-09-27T05:54:14;74.25;;;27.85;;
30948;SDS011;17637;51.984;21.208;2022-09-27T05:56:41;71.57;;;29.73;;
30948;SDS011;17637;51.984;21.208;2022-09-27T05:59:08;81.97;;;31.40;;
30948;SDS011;17637;51.984;21.208;2022-09-27T06:01:35;77.38;;;31.63;;
30948;SDS011;17637;51.984;21.208;2022-09-27T06:04:02;65.50;;;27.75;;
30948;SDS011;17637;51.984;21.208;2022-09-27T06:06:31;55.63;;;29.55;;
30948;SDS011;17637;51.984;21.208;2022-09-27T06:09:02;70.45;;;28.55;;
30948;SDS011;17637;51.984;21.208;2022-09-27T06:11:29;65.85;;;28.77;;
30948;SDS011;17637;51.984;21.208;2022-09-27T06:13:56;65.00;;;28.70;;
30948;SDS011;17637;51.984;21.208;2022-09-27T06:16:23;71.80;;;28.90;;
30948;SDS011;17637;51.984;21.208;2022-09-27T06:18:51;102.22;;;33.50;;
30948;SDS011;17637;51.984;21.208;2022-09-27T06:21:19;89.78;;;31.80;;
30948;SDS011;17637;51.984;21.208;2022-09-27T06:23:46;76.97;;;31.33;;
30948;SDS011;17637;51.984;21.208;2022-09-27T06:26:19;105.78;;;33.75;;
30948;SDS011;17637;51.984;21.208;2022-09-27T06:31:18;51.05;;;26.48;;
30948;SDS011;17637;51.984;21.208;2022-09-27T06:33:47;51.97;;;26.95;;
30948;SDS011;17637;51.984;21.208;2022-09-27T06:36:15;61.45;;;28.95;;
30948;SDS011;17637;51.984;21.208;2022-09-27T06:38:42;42.75;;;23.65;;
30948;SDS011;17637;51.984;21.208;2022-09-27T06:41:11;67.65;;;30.08;;
30948;SDS011;17637;51.984;21.208;2022-09-27T06:43:40;51.30;;;26.63;;
30948;SDS011;17637;51.984;21.208;2022-09-27T06:46:07;60.00;;;27.20;;
30948;SDS011;17637;51.984;21.208;2022-09-27T06:48:34;47.80;;;25.38;;
30948;SDS011;17637;51.984;21.208;2022-09-27T06:51:04;58.90;;;26.73;;
30948;SDS011;17637;51.984;21.208;2022-09-27T06:53:31;55.85;;;25.42;;
30948;SDS011;17637;51.984;21.208;2022-09-27T06:55:59;64.50;;;27.95;;
30948;SDS011;17637;51.984;21.208;2022-09-27T06:58:27;68.47;;;29.33;;
30948;SDS011;17637;51.984;21.208;2022-09-27T07:01:13;51.42;;;24.40;;
30948;SDS011;17637;51.984;21.208;2022-09-27T07:03:41;70.57;;;30.80;;
30948;SDS011;17637;51.984;21.208;2022-09-27T07:06:16;69.97;;;30.35;;
30948;SDS011;17637;51.984;21.208;2022-09-27T07:08:48;58.03;;;32.75;;
30948;SDS011;17637;51.984;21.208;2022-09-27T07:11:17;50.63;;;29.17;;
30948;SDS011;17637;51.984;21.208;2022-09-27T07:13:44;56.63;;;30.15;;
30948;SDS011;17637;51.984;21.208;2022-09-27T07:16:12;62.13;;;31.27;;
30948;SDS011;17637;51.984;21.208;2022-09-27T07:18:42;58.67;;;30.48;;
30948;SDS011;17637;51.984;21.208;2022-09-27T07:21:09;54.50;;;31.17;;
30948;SDS011;17637;51.984;21.208;2022-09-27T07:23:38;74.65;;;31.25;;
30948;SDS011;17637;51.984;21.208;2022-09-27T07:26:05;64.30;;;30.30;;
30948;SDS011;17637;51.984;21.208;2022-09-27T07:28:33;60.53;;;27.95;;
30948;SDS011;17637;51.984;21.208;2022-09-27T07:31:00;46.92;;;25.98;;
30948;SDS011;17637;51.984;21.208;2022-09-27T07:33:29;56.60;;;28.77;;
30948;SDS011;17637;51.984;21.208;2022-09-27T07:35:56;60.55;;;29.23;;
30948;SDS011;17637;51.984;21.208;2022-09-27T07:38:23;57.80;;;28.48;;
30948;SDS011;17637;51.984;21.208;2022-09-27T07:40:50;56.58;;;29.13;;
30948;SDS011;17637;51.984;21.208;2022-09-27T07:43:18;46.40;;;26.35;;
30948;SDS011;17637;51.984;21.208;2022-09-27T07:45:46;49.35;;;28.40;;
30948;SDS011;17637;51.984;21.208;2022-09-27T07:48:13;51.75;;;29.70;;
30948;SDS011;17637;51.984;21.208;2022-09-27T07:50:44;53.17;;;30.15;;
30948;SDS011;17637;51.984;21.208;2022-09-27T07:53:11;49.83;;;29.02;;
30948;SDS011;17637;51.984;21.208;2022-09-27T07:55:39;45.35;;;27.73;;
30948;SDS011;17637;51.984;21.208;2022-09-27T07:58:08;46.85;;;28.38;;
30948;SDS011;17637;51.984;21.208;2022-09-27T08:00:36;47.05;;;27.90;;
30948;SDS011;17637;51.984;21.208;2022-09-27T08:03:12;45.88;;;28.13;;
30948;SDS011;17637;51.984;21.208;2022-09-27T08:05:44;44.08;;;26.70;;
30948;SDS011;17637;51.984;21.208;2022-09-27T08:08:13;41.67;;;26.42;;
30948;SDS011;17637;51.984;21.208;2022-09-27T08:10:42;42.38;;;26.50;;
30948;SDS011;17637;51.984;21.208;2022-09-27T08:13:13;41.83;;;25.60;;
30948;SDS011;17637;51.984;21.208;2022-09-27T08:15:43;38.22;;;24.98;;
30948;SDS011;17637;51.984;21.208;2022-09-27T08:18:10;39.38;;;25.98;;
30948;SDS011;17637;51.984;21.208;2022-09-27T08:20:37;40.90;;;26.27;;
30948;SDS011;17637;51.984;21.208;2022-09-27T08:23:05;41.53;;;27.02;;
30948;SDS011;17637;51.984;21.208;2022-09-27T08:25:32;40.90;;;27.75;;
30948;SDS011;17637;51.984;21.208;2022-09-27T08:28:00;43.33;;;28.88;;
30948;SDS011;17637;51.984;21.208;2022-09-27T08:30:29;42.42;;;26.83;;
30948;SDS011;17637;51.984;21.208;2022-09-27T08:32:58;45.88;;;29.45;;
30948;SDS011;17637;51.984;21.208;2022-09-27T08:35:26;42.50;;;28.30;;
30948;SDS011;17637;51.984;21.208;2022-09-27T08:37:58;41.50;;;27.33;;
30948;SDS011;17637;51.984;21.208;2022-09-27T08:40:30;38.28;;;27.08;;
30948;SDS011;17637;51.984;21.208;2022-09-27T08:43:35;39.95;;;27.98;;
30948;SDS011;17637;51.984;21.208;2022-09-27T08:49:13;41.28;;;28.95;;
30948;SDS011;17637;51.984;21.208;2022-09-27T08:51:48;35.33;;;27.42;;
30948;SDS011;17637;51.984;21.208;2022-09-27T08:54:22;30.88;;;24.50;;
30948;SDS011;17637;51.984;21.208;2022-09-27T08:57:07;25.70;;;22.65;;
30948;SDS011;17637;51.984;21.208;2022-09-27T09:02:32;27.95;;;21.85;;
30948;SDS011;17637;51.984;21.208;2022-09-27T09:05:11;31.92;;;24.13;;
30948;SDS011;17637;51.984;21.208;2022-09-27T09:35:12;40.97;;;29.38;;
30948;SDS011;17637;51.984;21.208;2022-09-27T09:37:48;39.67;;;28.90;;
30948;SDS011;17637;51.984;21.208;2022-09-27T09:43:11;44.28;;;30.85;;
30948;SDS011;17637;51.984;21.208;2022-09-27T09:45:49;37.45;;;27.75;;
30948;SDS011;17637;51.984;21.208;2022-09-27T09:51:23;36.30;;;27.88;;
30948;SDS011;17637;51.984;21.208;2022-09-27T09:54:03;35.38;;;27.70;;
30948;SDS011;17637;51.984;21.208;2022-09-27T09:56:44;35.97;;;27.27;;
30948;SDS011;17637;51.984;21.208;2022-09-27T09:59:18;37.67;;;29.00;;
30948;SDS011;17637;51.984;21.208;2022-09-27T10:01:51;36.72;;;28.98;;
30948;SDS011;17637;51.984;21.208;2022-09-27T10:04:25;36.88;;;29.55;;
30948;SDS011;17637;51.984;21.208;2022-09-27T10:06:58;33.53;;;27.13;;
30948;SDS011;17637;51.984;21.208;2022-09-27T10:09:26;42.20;;;30.50;;
30948;SDS011;17637;51.984;21.208;2022-09-27T10:11:54;33.88;;;28.33;;
30948;SDS011;17637;51.984;21.208;2022-09-27T10:14:21;33.80;;;27.17;;
30948;SDS011;17637;51.984;21.208;2022-09-27T10:16:49;30.67;;;26.27;;
30948;SDS011;17637;51.984;21.208;2022-09-27T10:19:30;33.33;;;28.13;;
30948;SDS011;17637;51.984;21.208;2022-09-27T10:22:13;32.50;;;27.58;;
30948;SDS011;17637;51.984;21.208;2022-09-27T10:24:53;30.48;;;27.20;;
30948;SDS011;17637;51.984;21.208;2022-09-27T10:27:36;28.02;;;24.83;;
30948;SDS011;17637;51.984;21.208;2022-09-27T10:30:20;25.23;;;22.63;;
30948;SDS011;17637;51.984;21.208;2022-09-27T10:33:03;28.88;;;25.77;;
30948;SDS011;17637;51.984;21.208;2022-09-27T10:35:43;26.30;;;23.00;;
30948;SDS011;17637;51.984;21.208;2022-09-27T10:40:44;29.27;;;26.27;;
30948;SDS011;17637;51.984;21.208;2022-09-27T10:43:31;29.52;;;26.45;;
30948;SDS011;17637;51.984;21.208;2022-09-27T10:48:42;24.05;;;21.75;;
30948;SDS011;17637;51.984;21.208;2022-09-27T10:53:56;25.00;;;22.55;;
30948;SDS011;17637;51.984;21.208;2022-09-27T10:56:31;22.70;;;20.42;;
30948;SDS011;17637;51.984;21.208;2022-09-27T10:59:00;25.58;;;22.95;;
30948;SDS011;17637;51.984;21.208;2022-09-27T11:01:42;25.80;;;23.20;;
30948;SDS011;17637;51.984;21.208;2022-09-27T11:04:19;23.73;;;21.33;;
30948;SDS011;17637;51.984;21.208;2022-09-27T11:06:47;24.67;;;22.25;;
30948;SDS011;17637;51.984;21.208;2022-09-27T11:09:19;23.30;;;21.13;;
30948;SDS011;17637;51.984;21.208;2022-09-27T11:12:04;19.50;;;17.70;;
30948;SDS011;17637;51.984;21.208;2022-09-27T11:14:34;22.10;;;20.00;;
30948;SDS011;17637;51.984;21.208;2022-09-27T11:20:21;20.02;;;18.02;;
30948;SDS011;17637;51.984;21.208;2022-09-27T11:25:19;22.45;;;20.25;;
30948;SDS011;17637;51.984;21.208;2022-09-27T11:28:04;20.45;;;18.42;;
30948;SDS011;17637;51.984;21.208;2022-09-27T11:36:40;19.70;;;17.60;;
30948;SDS011;17637;51.984;21.208;2022-09-27T11:44:37;19.23;;;16.85;;
30948;SDS011;17637;51.984;21.208;2022-09-27T11:47:55;19.23;;;17.15;;
30948;SDS011;17637;51.984;21.208;2022-09-27T11:59:04;15.23;;;13.73;;
30948;SDS011;17637;51.984;21.208;2022-09-27T12:01:39;14.75;;;13.27;;
30948;SDS011;17637;51.984;21.208;2022-09-27T12:04:19;14.32;;;12.93;;
30948;SDS011;17637;51.984;21.208;2022-09-27T12:10:00;15.93;;;14.48;;
30948;SDS011;17637;51.984;21.208;2022-09-27T12:12:34;16.70;;;15.00;;
30948;SDS011;17637;51.984;21.208;2022-09-27T12:17:47;14.52;;;13.13;;
30948;SDS011;17637;51.984;21.208;2022-09-27T12:25:28;14.20;;;12.80;;
30948;SDS011;17637;51.984;21.208;2022-09-27T12:30:44;12.75;;;11.55;;
30948;SDS011;17637;51.984;21.208;2022-09-27T12:33:41;12.27;;;11.10;;
30948;SDS011;17637;51.984;21.208;2022-09-27T12:41:52;12.27;;;11.07;;
30948;SDS011;17637;51.984;21.208;2022-09-27T12:44:27;11.32;;;10.32;;
30948;SDS011;17637;51.984;21.208;2022-09-27T12:52:57;11.70;;;10.60;;
30948;SDS011;17637;51.984;21.208;2022-09-27T12:55:33;11.35;;;10.25;;
30948;SDS011;17637;51.984;21.208;2022-09-27T12:58:10;11.10;;;10.00;;
30948;SDS011;17637;51.984;21.208;2022-09-27T13:06:30;11.02;;;10.02;;
30948;SDS011;17637;51.984;21.208;2022-09-27T13:14:45;11.85;;;9.52;;
30948;SDS011;17637;51.984;21.208;2022-09-27T13:17:32;10.13;;;9.23;;
30948;SDS011;17637;51.984;21.208;2022-09-27T13:23:01;9.48;;;8.25;;
30948;SDS011;17637;51.984;21.208;2022-09-27T13:30:58;9.70;;;8.70;;
30948;SDS011;17637;51.984;21.208;2022-09-27T13:36:18;8.68;;;7.88;;
30948;SDS011;17637;51.984;21.208;2022-09-27T13:41:35;9.88;;;8.95;;
30948;SDS011;17637;51.984;21.208;2022-09-27T13:46:57;9.18;;;8.38;;
30948;SDS011;17637;51.984;21.208;2022-09-27T13:49:37;11.50;;;8.65;;
30948;SDS011;17637;51.984;21.208;2022-09-27T13:54:51;16.40;;;10.00;;
30948;SDS011;17637;51.984;21.208;2022-09-27T14:00:15;12.07;;;10.32;;
30948;SDS011;17637;51.984;21.208;2022-09-27T14:03:01;10.80;;;9.70;;
30948;SDS011;17637;51.984;21.208;2022-09-27T14:05:53;10.88;;;9.85;;
30948;SDS011;17637;51.984;21.208;2022-09-27T14:08:33;12.25;;;11.02;;
30948;SDS011;17637;51.984;21.208;2022-09-27T14:11:01;13.43;;;12.13;;
30948;SDS011;17637;51.984;21.208;2022-09-27T14:13:30;11.02;;;10.02;;
30948;SDS011;17637;51.984;21.208;2022-09-27T14:15:59;10.63;;;9.63;;
30948;SDS011;17637;51.984;21.208;2022-09-27T14:18:30;13.48;;;11.95;;
30948;SDS011;17637;51.984;21.208;2022-09-27T14:21:13;12.40;;;11.10;;
30948;SDS011;17637;51.984;21.208;2022-09-27T14:23:48;12.55;;;11.25;;
30948;SDS011;17637;51.984;21.208;2022-09-27T14:26:34;11.98;;;10.75;;
30948;SDS011;17637;51.984;21.208;2022-09-27T14:29:01;12.48;;;11.27;;
30948;SDS011;17637;51.984;21.208;2022-09-27T14:31:28;12.70;;;11.43;;
30948;SDS011;17637;51.984;21.208;2022-09-27T14:34:05;13.05;;;11.63;;
30948;SDS011;17637;51.984;21.208;2022-09-27T14:36:36;13.57;;;12.27;;
30948;SDS011;17637;51.984;21.208;2022-09-27T14:39:27;13.40;;;12.02;;
30948;SDS011;17637;51.984;21.208;2022-09-27T14:41:59;13.63;;;11.82;;
30948;SDS011;17637;51.984;21.208;2022-09-27T14:44:26;14.93;;;11.75;;
30948;SDS011;17637;51.984;21.208;2022-09-27T14:47:07;15.27;;;12.93;;
30948;SDS011;17637;51.984;21.208;2022-09-27T14:49:52;15.40;;;13.88;;
30948;SDS011;17637;51.984;21.208;2022-09-27T14:52:24;15.40;;;13.80;;
30948;SDS011;17637;51.984;21.208;2022-09-27T14:55:04;16.45;;;14.88;;
30948;SDS011;17637;51.984;21.208;2022-09-27T14:57:33;15.52;;;13.93;;
30948;SDS011;17637;51.984;21.208;2022-09-27T15:00:14;15.85;;;14.27;;
30948;SDS011;17637;51.984;21.208;2022-09-27T15:02:50;15.80;;;14.30;;
30948;SDS011;17637;51.984;21.208;2022-09-27T15:07:49;17.08;;;15.30;;
30948;SDS011;17637;51.984;21.208;2022-09-27T15:10:18;15.88;;;13.82;;
30948;SDS011;17637;51.984;21.208;2022-09-27T15:12:50;14.93;;;13.43;;
30948;SDS011;17637;51.984;21.208;2022-09-27T15:15:24;17.00;;;15.30;;
30948;SDS011;17637;51.984;21.208;2022-09-27T15:17:57;15.07;;;13.57;;
30948;SDS011;17637;51.984;21.208;2022-09-27T15:23:00;15.82;;;14.23;;
30948;SDS011;17637;51.984;21.208;2022-09-27T15:25:33;14.98;;;13.48;;
30948;SDS011;17637;51.984;21.208;2022-09-27T15:30:38;14.50;;;13.10;;
30948;SDS011;17637;51.984;21.208;2022-09-27T15:33:17;13.77;;;12.40;;
30948;SDS011;17637;51.984;21.208;2022-09-27T15:35:50;14.73;;;13.32;;
30948;SDS011;17637;51.984;21.208;2022-09-27T15:46:01;14.23;;;12.73;;
30948;SDS011;17637;51.984;21.208;2022-09-27T15:51:57;16.88;;;15.07;;
30948;SDS011;17637;51.984;21.208;2022-09-27T15:54:27;16.50;;;14.80;;
30948;SDS011;17637;51.984;21.208;2022-09-27T15:56:56;17.73;;;16.00;;
30948;SDS011;17637;51.984;21.208;2022-09-27T15:59:28;15.15;;;13.32;;
30948;SDS011;17637;51.984;21.208;2022-09-27T16:01:57;17.48;;;15.77;;
30948;SDS011;17637;51.984;21.208;2022-09-27T16:04:33;16.42;;;14.85;;
30948;SDS011;17637;51.984;21.208;2022-09-27T16:07:00;15.93;;;14.32;;
30948;SDS011;17637;51.984;21.208;2022-09-27T16:09:29;16.02;;;14.45;;
30948;SDS011;17637;51.984;21.208;2022-09-27T16:11:56;16.70;;;15.07;;
30948;SDS011;17637;51.984;21.208;2022-09-27T16:14:23;17.15;;;15.45;;
30948;SDS011;17637;51.984;21.208;2022-09-27T16:16:51;21.13;;;18.98;;
30948;SDS011;17637;51.984;21.208;2022-09-27T16:19:20;17.52;;;15.68;;
30948;SDS011;17637;51.984;21.208;2022-09-27T16:21:47;16.00;;;14.30;;
30948;SDS011;17637;51.984;21.208;2022-09-27T16:24:15;15.65;;;14.05;;
30948;SDS011;17637;51.984;21.208;2022-09-27T16:26:45;15.48;;;13.98;;
30948;SDS011;17637;51.984;21.208;2022-09-27T16:29:13;17.42;;;15.63;;
30948;SDS011;17637;51.984;21.208;2022-09-27T16:31:41;16.30;;;14.57;;
30948;SDS011;17637;51.984;21.208;2022-09-27T16:34:10;16.77;;;14.48;;
30948;SDS011;17637;51.984;21.208;2022-09-27T16:36:38;17.65;;;15.80;;
30948;SDS011;17637;51.984;21.208;2022-09-27T16:39:06;16.63;;;14.95;;
30948;SDS011;17637;51.984;21.208;2022-09-27T16:41:36;16.60;;;14.77;;
30948;SDS011;17637;51.984;21.208;2022-09-27T16:44:07;17.88;;;16.08;;
30948;SDS011;17637;51.984;21.208;2022-09-27T16:46:42;17.92;;;16.13;;
30948;SDS011;17637;51.984;21.208;2022-09-27T16:49:12;20.88;;;18.60;;
30948;SDS011;17637;51.984;21.208;2022-09-27T16:51:58;22.02;;;19.58;;
30948;SDS011;17637;51.984;21.208;2022-09-27T16:54:25;23.40;;;20.00;;
30948;SDS011;17637;51.984;21.208;2022-09-27T16:56:57;22.17;;;19.80;;
30948;SDS011;17637;51.984;21.208;2022-09-27T16:59:25;22.63;;;18.25;;
30948;SDS011;17637;51.984;21.208;2022-09-27T17:01:52;22.77;;;19.63;;
30948;SDS011;17637;51.984;21.208;2022-09-27T17:04:24;17.92;;;16.13;;
30948;SDS011;17637;51.984;21.208;2022-09-27T17:06:53;101.97;;;51.80;;
30948;SDS011;17637;51.984;21.208;2022-09-27T17:09:21;59.40;;;36.47;;
30948;SDS011;17637;51.984;21.208;2022-09-27T17:11:48;51.35;;;33.80;;
30948;SDS011;17637;51.984;21.208;2022-09-27T17:14:15;36.97;;;25.80;;
30948;SDS011;17637;51.984;21.208;2022-09-27T17:16:43;33.35;;;25.98;;
30948;SDS011;17637;51.984;21.208;2022-09-27T17:19:14;25.95;;;22.02;;
30948;SDS011;17637;51.984;21.208;2022-09-27T17:21:44;26.25;;;21.42;;
30948;SDS011;17637;51.984;21.208;2022-09-27T17:24:11;30.77;;;23.20;;
30948;SDS011;17637;51.984;21.208;2022-09-27T17:26:39;28.27;;;22.30;;
30948;SDS011;17637;51.984;21.208;2022-09-27T17:29:06;34.72;;;24.65;;
30948;SDS011;17637;51.984;21.208;2022-09-27T17:31:35;121.65;;;57.40;;
30948;SDS011;17637;51.984;21.208;2022-09-27T17:34:03;107.55;;;55.70;;
30948;SDS011;17637;51.984;21.208;2022-09-27T17:36:31;70.07;;;41.10;;
30948;SDS011;17637;51.984;21.208;2022-09-27T17:39:00;52.50;;;36.22;;
30948;SDS011;17637;51.984;21.208;2022-09-27T17:41:27;113.15;;;55.42;;
30948;SDS011;17637;51.984;21.208;2022-09-27T17:43:56;142.80;;;69.43;;
30948;SDS011;17637;51.984;21.208;2022-09-27T17:46:25;127.15;;;58.97;;
30948;SDS011;17637;51.984;21.208;2022-09-27T17:48:54;159.88;;;75.90;;
30948;SDS011;17637;51.984;21.208;2022-09-27T17:51:40;194.43;;;91.15;;
30948;SDS011;17637;51.984;21.208;2022-09-27T17:54:09;171.02;;;80.38;;
30948;SDS011;17637;51.984;21.208;2022-09-27T17:56:36;158.27;;;75.50;;
30948;SDS011;17637;51.984;21.208;2022-09-27T17:59:05;207.93;;;95.85;;
30948;SDS011;17637;51.984;21.208;2022-09-27T18:01:32;165.15;;;83.78;;